createdAt,value
2018-05-26T00:00:30.772Z,19.70
2018-05-26T00:02:56.990Z,19.60
2018-05-26T00:05:23.742Z,19.60
2018-05-26T00:07:50.024Z,19.70
2018-05-26T00:10:16.288Z,19.50
2018-05-26T00:12:42.851Z,19.50
2018-05-26T00:15:09.234Z,19.70
2018-05-26T00:17:36.582Z,19.70
2018-05-26T00:20:02.998Z,19.60
2018-05-26T00:22:29.291Z,19.60
2018-05-26T00:24:55.607Z,19.60
2018-05-26T00:27:21.828Z,19.50
2018-05-26T00:29:47.994Z,19.50
2018-05-26T00:32:14.167Z,19.50
2018-05-26T00:34:41.522Z,19.60
2018-05-26T00:37:07.726Z,19.50
2018-05-26T00:39:33.887Z,19.60
2018-05-26T00:42:00.079Z,19.60
2018-05-26T00:44:26.258Z,19.50
2018-05-26T00:46:52.422Z,19.60
2018-05-26T00:49:18.626Z,19.60
2018-05-26T00:51:44.786Z,19.60
2018-05-26T00:54:10.966Z,19.40
2018-05-26T00:56:38.258Z,19.50
2018-05-26T00:59:04.441Z,19.50
2018-05-26T01:01:30.595Z,19.40
2018-05-26T01:03:56.796Z,19.40
2018-05-26T01:06:22.958Z,19.40
2018-05-26T01:08:49.142Z,19.40
2018-05-26T01:11:15.383Z,19.40
2018-05-26T01:13:41.551Z,19.30
2018-05-26T01:16:07.706Z,19.30
2018-05-26T01:18:33.884Z,19.30
2018-05-26T01:21:00.121Z,19.30
2018-05-26T01:23:27.406Z,19.10
2018-05-26T01:25:54.687Z,19.00
2018-05-26T01:28:20.886Z,19.00
2018-05-26T01:30:47.067Z,18.90
2018-05-26T01:33:13.242Z,19.00
2018-05-26T01:35:39.399Z,18.90
2018-05-26T01:38:05.570Z,18.90
2018-05-26T01:40:32.866Z,18.90
2018-05-26T01:42:59.030Z,18.90
2018-05-26T01:45:25.210Z,19.00
2018-05-26T01:47:52.519Z,18.90
2018-05-26T01:50:18.692Z,18.90
2018-05-26T01:52:44.855Z,18.80
2018-05-26T01:55:12.146Z,18.90
2018-05-26T01:57:38.334Z,18.80
2018-05-26T02:00:04.514Z,18.90
2018-05-26T02:04:58.622Z,18.90
2018-05-26T02:07:24.766Z,18.90
2018-05-26T02:09:50.986Z,19.00
2018-05-26T02:12:17.210Z,18.90
2018-05-26T02:14:43.366Z,18.90
2018-05-26T02:17:09.556Z,18.90
2018-05-26T02:19:35.720Z,19.00
2018-05-26T02:22:01.895Z,19.00
2018-05-26T02:24:28.131Z,19.00
2018-05-26T02:26:54.290Z,18.90
2018-05-26T02:29:20.493Z,19.00
2018-05-26T02:31:46.706Z,18.90
2018-05-26T02:34:12.874Z,18.80
2018-05-26T02:36:39.051Z,18.70
2018-05-26T02:39:05.258Z,18.60
2018-05-26T02:41:31.486Z,18.60
2018-05-26T02:43:57.666Z,18.60
2018-05-26T02:46:24.967Z,18.70
2018-05-26T02:48:51.248Z,18.70
2018-05-26T02:51:17.427Z,18.60
2018-05-26T02:53:44.718Z,18.60
2018-05-26T02:56:10.887Z,18.60
2018-05-26T02:58:37.057Z,18.70
2018-05-26T03:01:03.238Z,18.60
2018-05-26T03:03:29.398Z,18.50
2018-05-26T03:06:01.766Z,18.50
2018-05-26T03:08:34.077Z,18.50
2018-05-26T03:11:06.350Z,18.50
2018-05-26T03:13:38.690Z,18.50
2018-05-26T03:16:06.935Z,18.50
2018-05-26T03:18:33.106Z,18.40
2018-05-26T03:20:59.274Z,18.60
2018-05-26T03:23:25.443Z,18.50
2018-05-26T03:25:51.623Z,18.40
2018-05-26T03:28:17.815Z,18.10
2018-05-26T03:30:43.973Z,18.20
2018-05-26T03:33:10.213Z,18.30
2018-05-26T03:35:36.404Z,18.30
2018-05-26T03:38:02.612Z,18.30
2018-05-26T03:40:28.771Z,18.30
2018-05-26T03:42:54.952Z,18.10
2018-05-26T03:45:21.101Z,18.20
2018-05-26T03:47:47.267Z,18.20
2018-05-26T03:50:13.458Z,18.10
2018-05-26T03:52:39.623Z,18.20
2018-05-26T03:58:18.911Z,18.20
2018-05-26T04:00:45.086Z,18.20
2018-05-26T04:03:11.238Z,18.00
2018-05-26T04:05:37.402Z,18.00
2018-05-26T04:08:03.574Z,18.00
2018-05-26T04:10:29.747Z,18.00
2018-05-26T04:12:55.902Z,18.10
2018-05-26T04:15:22.075Z,18.00
2018-05-26T04:17:48.242Z,18.00
2018-05-26T04:20:14.425Z,18.10
2018-05-26T04:22:40.598Z,18.10
2018-05-26T04:25:06.784Z,18.00
2018-05-26T04:27:32.949Z,18.10
2018-05-26T04:30:00.262Z,18.10
2018-05-26T04:32:26.429Z,18.10
2018-05-26T04:34:52.611Z,18.20
2018-05-26T04:39:46.726Z,18.30
2018-05-26T04:42:14.008Z,18.40
2018-05-26T04:44:40.187Z,18.40
2018-05-26T04:47:06.334Z,18.30
2018-05-26T04:49:32.747Z,18.30
2018-05-26T04:51:58.931Z,18.40
2018-05-26T04:54:25.110Z,18.40
2018-05-26T04:59:19.158Z,18.50
2018-05-26T05:01:45.298Z,18.50
2018-05-26T05:04:11.480Z,18.40
2018-05-26T05:06:37.658Z,18.40
2018-05-26T05:09:03.906Z,18.50
2018-05-26T05:11:30.083Z,18.40
2018-05-26T05:13:56.280Z,18.50
2018-05-26T05:16:22.471Z,18.50
2018-05-26T05:18:48.614Z,18.60
2018-05-26T05:21:14.791Z,18.60
2018-05-26T05:23:41.015Z,18.60
2018-05-26T05:26:08.277Z,18.70
2018-05-26T05:28:35.586Z,18.70
2018-05-26T05:31:01.744Z,18.70
2018-05-26T05:33:27.917Z,18.80
2018-05-26T05:35:54.099Z,18.90
2018-05-26T05:38:20.291Z,18.80
2018-05-26T05:40:46.437Z,18.80
2018-05-26T05:43:12.617Z,19.00
2018-05-26T05:45:38.775Z,19.00
2018-05-26T05:48:04.945Z,18.90
2018-05-26T05:50:31.166Z,19.00
2018-05-26T05:52:57.330Z,19.00
2018-05-26T05:55:23.525Z,19.10
2018-05-26T05:57:49.725Z,19.30
2018-05-26T06:00:15.915Z,19.30
2018-05-26T06:02:42.070Z,19.30
2018-05-26T06:05:08.453Z,19.40
2018-05-26T06:07:35.739Z,19.60
2018-05-26T06:10:03.922Z,19.60
2018-05-26T06:12:30.098Z,19.60
2018-05-26T06:14:56.277Z,19.70
2018-05-26T06:17:22.471Z,19.70
2018-05-26T06:19:48.651Z,19.70
2018-05-26T06:22:14.811Z,19.70
2018-05-26T06:24:42.086Z,19.90
2018-05-26T06:27:09.773Z,19.90
2018-05-26T06:29:35.935Z,19.80
2018-05-26T06:32:02.087Z,19.90
2018-05-26T06:34:28.272Z,20.00
2018-05-26T06:36:55.543Z,20.20
2018-05-26T06:39:22.822Z,20.30
2018-05-26T06:41:48.989Z,20.30
2018-05-26T06:44:15.163Z,20.30
2018-05-26T06:46:41.355Z,20.20
2018-05-26T06:49:07.590Z,20.40
2018-05-26T06:51:34.996Z,20.50
2018-05-26T06:54:01.181Z,20.80
2018-05-26T06:56:28.466Z,20.90
2018-05-26T06:58:54.618Z,20.90
2018-05-26T07:01:20.994Z,21.10
2018-05-26T07:03:47.157Z,21.20
2018-05-26T07:06:13.319Z,21.30
2018-05-26T07:11:08.543Z,21.30
2018-05-26T07:13:34.712Z,21.60
2018-05-26T07:16:00.938Z,21.60
2018-05-26T07:18:28.215Z,22.10
2018-05-26T07:25:50.210Z,22.60
2018-05-26T07:28:17.484Z,22.70
2018-05-26T07:30:43.655Z,22.60
2018-05-26T07:33:09.818Z,23.00
2018-05-26T07:35:35.987Z,23.10
2018-05-26T07:38:03.294Z,23.20
2018-05-26T07:40:29.451Z,23.10
2018-05-26T07:42:55.716Z,23.00
2018-05-26T07:45:21.920Z,22.80
2018-05-26T07:47:48.078Z,22.60
2018-05-26T07:50:14.248Z,22.80
2018-05-26T07:52:40.563Z,22.80
2018-05-26T07:55:06.731Z,22.80
2018-05-26T07:57:32.898Z,22.80
2018-05-26T07:59:59.081Z,22.90
2018-05-26T08:02:25.243Z,23.10
2018-05-26T08:04:51.403Z,23.30
2018-05-26T08:07:18.717Z,23.50
2018-05-26T08:09:44.894Z,23.50
2018-05-26T08:12:11.059Z,23.60
2018-05-26T08:14:38.346Z,24.10
2018-05-26T08:17:04.516Z,24.10
2018-05-26T08:19:30.681Z,24.30
2018-05-26T08:21:56.858Z,24.50
2018-05-26T08:24:23.016Z,24.50
2018-05-26T08:26:49.192Z,24.60
2018-05-26T08:29:15.394Z,24.80
2018-05-26T08:31:41.549Z,24.60
2018-05-26T08:34:07.728Z,24.80
2018-05-26T08:36:33.910Z,24.90
2018-05-26T08:39:00.062Z,25.00
2018-05-26T08:41:26.238Z,25.10
2018-05-26T08:43:52.445Z,25.20
2018-05-26T08:46:18.608Z,25.50
2018-05-26T08:48:44.757Z,25.40
2018-05-26T08:51:10.955Z,25.50
2018-05-26T08:53:37.113Z,25.30
2018-05-26T08:56:03.335Z,25.50
2018-05-26T08:58:29.514Z,25.60
2018-05-26T09:00:55.682Z,25.70
2018-05-26T09:03:23.187Z,25.90
2018-05-26T09:05:49.390Z,25.90
2018-05-26T09:08:16.679Z,26.10
2018-05-26T09:10:42.838Z,26.10
2018-05-26T09:13:09.010Z,26.50
2018-05-26T09:15:35.181Z,26.40
2018-05-26T09:20:29.306Z,26.70
2018-05-26T09:22:56.578Z,26.50
2018-05-26T09:25:22.835Z,26.50
2018-05-26T09:27:48.963Z,26.60
2018-05-26T09:30:15.161Z,27.00
2018-05-26T09:32:41.358Z,26.90
2018-05-26T09:35:07.543Z,26.90
2018-05-26T09:37:33.710Z,27.20
2018-05-26T09:40:00.666Z,27.60
2018-05-26T09:42:26.804Z,27.50
2018-05-26T09:44:54.119Z,27.90
2018-05-26T09:47:20.286Z,27.70
2018-05-26T09:49:46.491Z,27.90
2018-05-26T09:52:12.654Z,28.10
2018-05-26T09:54:38.834Z,28.10
2018-05-26T09:57:05.756Z,28.30
2018-05-26T09:59:31.931Z,28.10
2018-05-26T10:01:58.835Z,28.30
2018-05-26T10:04:25.018Z,28.30
2018-05-26T10:06:51.189Z,28.20
2018-05-26T10:09:17.362Z,28.20
2018-05-26T10:11:43.560Z,28.40
2018-05-26T10:14:09.738Z,28.50
2018-05-26T10:16:35.917Z,28.50
2018-05-26T10:19:02.128Z,28.80
2018-05-26T10:21:28.290Z,28.80
2018-05-26T10:23:54.456Z,28.90
2018-05-26T10:26:21.756Z,29.00
2018-05-26T10:28:47.926Z,29.00
2018-05-26T10:31:14.107Z,29.20
2018-05-26T10:33:43.403Z,28.90
2018-05-26T10:36:09.620Z,28.90
2018-05-26T10:38:35.836Z,29.40
2018-05-26T10:41:02.074Z,29.40
2018-05-26T10:43:28.248Z,29.80
2018-05-26T10:46:06.663Z,29.70
2018-05-26T10:48:32.846Z,29.40
2018-05-26T10:51:00.148Z,29.50
2018-05-26T10:53:26.330Z,29.50
2018-05-26T10:55:52.531Z,29.50
2018-05-26T10:58:18.690Z,29.90
2018-05-26T11:00:44.886Z,29.80
2018-05-26T11:03:12.158Z,30.10
2018-05-26T11:05:38.352Z,30.10
2018-05-26T11:08:04.540Z,30.40
2018-05-26T11:10:30.753Z,30.40
2018-05-26T11:12:56.919Z,30.20
2018-05-26T11:15:23.100Z,30.60
2018-05-26T11:17:49.480Z,30.50
2018-05-26T11:20:15.504Z,30.70
2018-05-26T11:22:41.702Z,30.60
2018-05-26T11:25:07.893Z,30.80
2018-05-26T11:27:35.187Z,30.80
2018-05-26T11:30:01.412Z,30.80
2018-05-26T11:32:28.690Z,31.00
2018-05-26T11:34:54.874Z,31.10
2018-05-26T11:37:21.109Z,31.00
2018-05-26T11:39:47.279Z,31.30
2018-05-26T11:42:13.463Z,31.30
2018-05-26T11:44:39.666Z,31.70
2018-05-26T11:47:05.830Z,31.80
2018-05-26T11:49:32.738Z,32.80
2018-05-26T11:51:58.962Z,32.70
2018-05-26T11:54:25.170Z,32.90
2018-05-26T11:56:51.331Z,33.80
2018-05-26T11:59:17.519Z,35.00
2018-05-26T12:01:43.688Z,36.30
2018-05-26T12:04:10.650Z,37.70
2018-05-26T12:06:37.578Z,38.60
2018-05-26T12:09:03.771Z,38.60
2018-05-26T12:11:30.007Z,39.50
2018-05-26T12:13:56.238Z,39.70
2018-05-26T12:16:22.406Z,39.50
2018-05-26T12:18:48.600Z,39.40
2018-05-26T12:21:15.523Z,37.40
2018-05-26T12:23:41.708Z,37.30
2018-05-26T12:26:08.739Z,37.00
2018-05-26T12:28:34.927Z,37.00
2018-05-26T12:31:01.151Z,36.70
2018-05-26T12:33:28.051Z,36.00
2018-05-26T12:35:54.256Z,35.90
2018-05-26T12:38:20.419Z,35.40
2018-05-26T12:40:46.590Z,35.20
2018-05-26T12:43:12.793Z,35.40
2018-05-26T12:45:38.959Z,35.50
2018-05-26T12:48:05.138Z,36.00
2018-05-26T12:50:32.083Z,37.30
2018-05-26T12:52:58.263Z,37.20
2018-05-26T12:55:24.420Z,37.40
2018-05-26T12:57:50.722Z,37.00
2018-05-26T13:00:17.646Z,35.00
2018-05-26T13:02:43.850Z,35.00
2018-05-26T13:05:10.030Z,34.80
2018-05-26T13:07:36.226Z,34.60
2018-05-26T13:10:02.427Z,34.50
2018-05-26T13:12:30.913Z,34.60
2018-05-26T13:14:58.360Z,34.30
2018-05-26T13:17:25.195Z,34.30
2018-05-26T13:19:52.963Z,34.50
2018-05-26T13:22:19.187Z,34.50
2018-05-26T13:24:45.390Z,34.30
2018-05-26T13:27:12.689Z,33.80
2018-05-26T13:29:38.892Z,33.90
2018-05-26T13:32:05.078Z,33.50
2018-05-26T13:34:34.294Z,33.30
2018-05-26T13:37:02.312Z,33.50
2018-05-26T13:39:28.965Z,33.30
2018-05-26T13:41:55.162Z,33.30
2018-05-26T13:44:21.338Z,33.30
2018-05-26T13:46:47.546Z,33.70
2018-05-26T13:49:13.854Z,33.30
2018-05-26T13:51:41.467Z,32.90
2018-05-26T13:54:07.648Z,32.80
2018-05-26T13:56:33.948Z,32.90
2018-05-26T13:59:01.200Z,32.80
2018-05-26T14:01:27.415Z,32.80
2018-05-26T14:03:53.614Z,33.20
2018-05-26T14:06:19.791Z,33.00
2018-05-26T14:08:45.961Z,33.40
2018-05-26T14:11:12.985Z,33.80
2018-05-26T14:13:39.245Z,33.80
2018-05-26T14:16:06.591Z,33.60
2018-05-26T14:18:32.816Z,33.60
2018-05-26T14:20:58.993Z,33.50
2018-05-26T14:23:25.163Z,33.50
2018-05-26T14:25:51.342Z,33.60
2018-05-26T14:28:17.510Z,33.30
2018-05-26T14:30:43.689Z,33.10
2018-05-26T14:33:09.957Z,33.20
2018-05-26T14:35:36.134Z,33.50
2018-05-26T14:38:02.631Z,33.20
2018-05-26T14:40:29.117Z,33.10
2018-05-26T14:42:55.375Z,32.30
2018-05-26T14:45:27.860Z,31.80
2018-05-26T14:47:57.780Z,32.00
2018-05-26T14:50:24.002Z,32.30
2018-05-26T14:52:50.174Z,32.80
2018-05-26T14:55:16.370Z,33.30
2018-05-26T14:57:42.530Z,33.50
2018-05-26T15:00:08.785Z,33.70
2018-05-26T15:02:34.991Z,33.90
2018-05-26T15:05:02.300Z,34.30
2018-05-26T15:07:28.490Z,34.30
2018-05-26T15:09:55.802Z,33.40
2018-05-26T15:12:23.026Z,33.30
2018-05-26T15:14:50.421Z,31.70
2018-05-26T15:17:16.622Z,31.70
2018-05-26T15:19:42.786Z,31.20
2018-05-26T15:22:10.515Z,29.90
2018-05-26T15:24:36.993Z,29.90
2018-05-26T15:27:03.269Z,29.80
2018-05-26T15:29:29.457Z,29.50
2018-05-26T15:31:55.662Z,29.50
2018-05-26T15:34:21.825Z,29.40
2018-05-26T15:36:48.029Z,29.00
2018-05-26T15:39:14.215Z,28.90
2018-05-26T15:41:40.420Z,28.70
2018-05-26T15:44:06.626Z,28.40
2018-05-26T15:46:33.942Z,28.30
2018-05-26T15:49:00.131Z,28.20
2018-05-26T15:51:27.415Z,28.10
2018-05-26T15:53:54.695Z,28.00
2018-05-26T15:56:20.897Z,28.10
2018-05-26T15:58:47.066Z,28.10
2018-05-26T16:01:13.258Z,27.90
2018-05-26T16:03:39.470Z,27.90
2018-05-26T16:06:05.639Z,27.60
2018-05-26T16:08:31.869Z,27.90
2018-05-26T16:10:58.047Z,27.80
2018-05-26T16:13:24.958Z,27.80
2018-05-26T16:15:51.142Z,27.80
2018-05-26T16:18:17.312Z,27.70
2018-05-26T16:20:43.515Z,27.70
2018-05-26T16:23:09.707Z,27.70
2018-05-26T16:25:36.615Z,27.90
2018-05-26T16:28:02.878Z,27.80
2018-05-26T16:30:30.210Z,27.80
2018-05-26T16:32:56.406Z,27.80
2018-05-26T16:35:22.717Z,27.60
2018-05-26T16:37:50.116Z,27.80
2018-05-26T16:40:16.426Z,27.70
2018-05-26T16:42:42.724Z,27.70
2018-05-26T16:45:09.969Z,27.70
2018-05-26T16:47:36.302Z,27.80
2018-05-26T16:50:03.767Z,27.80
2018-05-26T16:52:31.156Z,27.70
2018-05-26T16:54:57.337Z,27.70
2018-05-26T16:57:23.506Z,27.60
2018-05-26T16:59:49.702Z,27.70
2018-05-26T17:02:15.916Z,27.60
2018-05-26T17:04:43.156Z,27.60
2018-05-26T17:07:10.493Z,27.50
2018-05-26T17:09:36.674Z,27.50
2018-05-26T17:14:31.841Z,27.50
2018-05-26T17:16:58.040Z,27.40
2018-05-26T17:19:24.286Z,27.50
2018-05-26T17:21:50.562Z,27.30
2018-05-26T17:24:16.816Z,27.40
2018-05-26T17:26:42.999Z,27.40
2018-05-26T17:29:09.198Z,27.30
2018-05-26T17:31:35.460Z,27.20
2018-05-26T17:34:01.720Z,27.10
2018-05-26T17:36:27.940Z,27.30
2018-05-26T17:38:54.377Z,27.20
2018-05-26T17:41:20.554Z,27.10
2018-05-26T17:43:46.729Z,27.00
2018-05-26T17:46:13.135Z,27.00
2018-05-26T17:48:39.335Z,26.80
2018-05-26T17:51:05.530Z,26.80
2018-05-26T17:53:31.724Z,26.70
2018-05-26T17:55:57.919Z,26.50
2018-05-26T17:58:25.239Z,26.50
2018-05-26T18:00:51.445Z,26.50
2018-05-26T18:03:17.668Z,26.50
2018-05-26T18:05:43.901Z,26.50
2018-05-26T18:08:10.079Z,26.40
2018-05-26T18:10:36.254Z,26.30
2018-05-26T18:13:02.446Z,26.30
2018-05-26T18:15:28.630Z,26.20
2018-05-26T18:17:54.885Z,26.10
2018-05-26T18:20:23.016Z,26.10
2018-05-26T18:22:49.208Z,25.90
2018-05-26T18:25:15.400Z,26.00
2018-05-26T18:27:41.798Z,26.00
2018-05-26T18:30:07.995Z,25.90
2018-05-26T18:32:34.227Z,26.00
2018-05-26T18:35:00.431Z,25.90
2018-05-26T18:37:26.928Z,25.70
2018-05-26T18:39:53.243Z,25.80
2018-05-26T18:42:20.654Z,25.80
2018-05-26T18:44:47.050Z,25.80
2018-05-26T18:47:14.335Z,25.70
2018-05-26T18:49:41.610Z,25.60
2018-05-26T18:52:07.858Z,25.50
2018-05-26T18:54:34.346Z,25.50
2018-05-26T18:57:00.522Z,25.40
2018-05-26T18:59:26.783Z,25.50
2018-05-26T19:01:52.934Z,25.40
2018-05-26T19:04:20.259Z,25.40
2018-05-26T19:06:46.487Z,25.20
2018-05-26T19:09:12.818Z,25.20
2018-05-26T19:11:39.417Z,25.30
2018-05-26T19:14:05.647Z,25.10
2018-05-26T19:16:32.943Z,25.10
2018-05-26T19:18:59.166Z,25.10
2018-05-26T19:23:53.359Z,24.90
2018-05-26T19:26:19.527Z,25.00
2018-05-26T19:28:47.030Z,24.90
2018-05-26T19:31:14.551Z,24.80
2018-05-26T19:33:42.149Z,24.80
2018-05-26T19:36:08.386Z,24.70
2018-05-26T19:38:34.582Z,24.80
2018-05-26T19:41:01.560Z,24.70
2018-05-26T19:43:27.762Z,24.70
2018-05-26T19:45:53.926Z,24.60
2018-05-26T19:48:20.173Z,24.40
2018-05-26T19:50:46.398Z,24.50
2018-05-26T19:53:12.806Z,24.50
2018-05-26T19:55:39.102Z,24.40
2018-05-26T19:58:05.523Z,24.40
2018-05-26T20:00:31.772Z,24.40
2018-05-26T20:02:57.997Z,24.20
2018-05-26T20:05:26.126Z,24.30
2018-05-26T20:07:53.205Z,24.20
2018-05-26T20:12:48.071Z,24.20
2018-05-26T20:15:15.463Z,24.10
2018-05-26T20:17:43.968Z,23.90
2018-05-26T20:20:10.179Z,24.00
2018-05-26T20:22:36.394Z,24.00
2018-05-26T20:25:03.666Z,24.00
2018-05-26T20:27:31.951Z,23.90
2018-05-26T20:29:58.291Z,23.90
2018-05-26T20:32:24.531Z,23.90
2018-05-26T20:34:50.753Z,23.90
2018-05-26T20:37:16.930Z,23.80
2018-05-26T20:39:43.076Z,23.80
2018-05-26T20:42:09.362Z,23.80
2018-05-26T20:44:35.893Z,23.70
2018-05-26T20:47:02.078Z,23.60
2018-05-26T20:49:29.833Z,23.70
2018-05-26T20:51:56.538Z,23.60
2018-05-26T20:54:23.347Z,23.70
2018-05-26T20:56:50.062Z,23.60
2018-05-26T20:59:17.782Z,23.60
2018-05-26T21:04:13.794Z,23.50
2018-05-26T21:06:40.265Z,23.50
2018-05-26T21:09:06.827Z,23.50
2018-05-26T21:11:33.306Z,23.40
2018-05-26T21:13:59.803Z,23.40
2018-05-26T21:16:26.706Z,23.30
2018-05-26T21:18:54.314Z,23.30
2018-05-26T21:21:20.854Z,23.30
2018-05-26T21:23:47.380Z,23.20
2018-05-26T21:26:13.595Z,23.20
2018-05-26T21:28:39.766Z,23.20
2018-05-26T21:31:07.093Z,23.10
2018-05-26T21:33:33.306Z,23.10
2018-05-26T21:35:59.465Z,23.20
2018-05-26T21:38:25.985Z,23.20
2018-05-26T21:40:52.371Z,23.10
2018-05-26T21:43:18.811Z,23.20
2018-05-26T21:45:44.994Z,23.00
2018-05-26T21:48:12.478Z,23.00
2018-05-26T21:50:38.676Z,23.00
2018-05-26T21:53:04.842Z,22.90
2018-05-26T21:55:32.142Z,22.90
2018-05-26T21:57:58.361Z,22.90
2018-05-26T22:00:24.503Z,22.90
2018-05-26T22:07:46.843Z,22.70
2018-05-26T22:10:13.061Z,22.60
2018-05-26T22:12:39.246Z,22.60
2018-05-26T22:15:05.428Z,22.60
2018-05-26T22:17:32.838Z,22.50
2018-05-26T22:19:59.019Z,22.50
2018-05-26T22:22:25.218Z,22.30
2018-05-26T22:24:51.417Z,22.40
2018-05-26T22:27:17.843Z,22.30
2018-05-26T22:29:44.038Z,22.20
2018-05-26T22:32:10.235Z,22.20
2018-05-26T22:34:36.408Z,22.10
2018-05-26T22:37:02.589Z,22.10
2018-05-26T22:39:28.796Z,22.20
2018-05-26T22:41:54.971Z,22.20
2018-05-26T22:44:21.160Z,22.10
2018-05-26T22:46:48.451Z,22.10
2018-05-26T22:49:14.622Z,22.20
2018-05-26T22:51:40.807Z,22.10
2018-05-26T22:54:08.102Z,22.10
2018-05-26T22:56:34.291Z,22.10
2018-05-26T22:59:00.452Z,22.00
2018-05-26T23:03:55.753Z,22.00
2018-05-26T23:06:21.968Z,22.00
2018-05-26T23:08:48.144Z,22.00
2018-05-26T23:11:14.322Z,21.80
2018-05-26T23:16:08.559Z,21.90
2018-05-26T23:18:34.726Z,21.90
2018-05-26T23:21:00.937Z,22.00
2018-05-26T23:23:27.242Z,21.90
2018-05-26T23:25:53.420Z,22.00
2018-05-26T23:28:19.620Z,21.90
2018-05-26T23:30:45.958Z,22.00
2018-05-26T23:33:12.123Z,21.90
2018-05-26T23:35:39.408Z,21.80
2018-05-26T23:38:05.661Z,21.70
2018-05-26T23:40:31.849Z,21.50
2018-05-26T23:42:58.026Z,21.60
2018-05-26T23:45:24.206Z,21.60
2018-05-26T23:47:50.366Z,21.70
2018-05-26T23:50:16.728Z,21.60
2018-05-26T23:52:44.026Z,21.50
2018-05-26T23:55:10.182Z,21.50
2018-05-26T23:57:36.351Z,21.50
